Time;durP1;ratioP1;P1;durP2;ratioP2;P2;SDS_P1;SDS_P2;PMS_P1;PMS_P2;Temp;Humidity;BMP_temperature;BMP_pressure;BME280_temperature;BME280_humidity;BME280_pressure;Samples;Min_cycle;Max_cycle;Signal;HPM_P1;HPM_P2
2020/12/02 00:01:59;;;;;;;1.87;1.47;;;;;;;-1.65;86.27;101045.66;1790636;80;21004;-68
2020/12/02 00:04:27;;;;;;;1.73;1.47;;;;;;;-1.66;86.27;101048.80;1790820;80;21356;-68
2020/12/02 00:06:54;;;;;;;0.93;0.90;;;;;;;-1.65;86.27;101054.95;1790697;80;21377;-67
2020/12/02 00:09:23;;;;;;;1.77;1.20;;;;;;;-1.64;86.29;101060.66;1790620;80;20984;-67
2020/12/02 00:11:51;;;;;;;0.80;0.80;;;;;;;-1.65;86.29;101052.30;1790823;80;21031;-68
2020/12/02 00:14:26;;;;;;;1.60;1.33;;;;;;;-1.64;86.30;101054.03;1790853;80;20980;-67
2020/12/02 00:16:56;;;;;;;1.20;1.20;;;;;;;-1.64;86.30;101053.55;1710761;83;21265;-67
2020/12/02 00:19:25;;;;;;;1.03;0.97;;;;;;;-1.63;86.27;101062.37;1733727;82;21042;-68
2020/12/02 00:22:11;;;;;;;1.40;1.30;;;;;;;-1.62;86.26;101058.80;1733634;82;20976;-67
2020/12/02 00:24:45;;;;;;;1.33;1.23;;;;;;;-1.58;86.26;101057.72;1845657;76;26938;-68
2020/12/02 00:27:29;;;;;;;1.57;1.47;;;;;;;-1.62;86.24;101059.65;1815929;79;21055;-68
2020/12/02 00:29:57;;;;;;;1.17;1.17;;;;;;;-1.61;86.24;101061.39;1815681;79;21360;-68
2020/12/02 00:32:32;;;;;;;1.93;1.37;;;;;;;-1.62;86.23;101057.47;1815009;78;20890;-67
2020/12/02 00:35:00;;;;;;;1.07;0.83;;;;;;;-1.62;86.24;101053.49;1671001;84;21593;-67
2020/12/02 00:37:28;;;;;;;1.00;0.97;;;;;;;-1.63;86.22;101059.71;1669325;86;21056;-68
2020/12/02 00:39:57;;;;;;;0.80;0.80;;;;;;;-1.63;86.21;101055.73;1669816;86;20973;-67
2020/12/02 00:42:25;;;;;;;1.43;1.33;;;;;;;-1.63;86.21;101055.73;1669292;86;21366;-68
2020/12/02 00:44:55;;;;;;;0.97;0.97;;;;;;;-1.62;86.22;101057.00;1669382;86;21028;-68
2020/12/02 00:47:24;;;;;;;2.13;1.33;;;;;;;-1.62;86.22;101054.34;1669198;86;21059;-67
2020/12/02 00:49:55;;;;;;;0.93;0.83;;;;;;;-1.61;86.22;101053.42;1669492;86;21725;-67
2020/12/02 00:52:24;;;;;;;1.37;1.27;;;;;;;-1.62;86.20;101049.05;1669263;86;21602;-68
2020/12/02 00:54:53;;;;;;;1.13;1.13;;;;;;;-1.63;86.18;101048.66;1669593;86;21113;-67
2020/12/02 00:57:25;;;;;;;1.33;0.90;;;;;;;-1.62;86.16;101056.14;1696024;84;21239;-67
2020/12/02 00:59:56;;;;;;;1.10;1.10;;;;;;;-1.64;86.17;101048.73;1704715;84;21032;-68
2020/12/02 01:02:35;;;;;;;0.40;0.40;;;;;;;-1.67;86.19;101045.73;1704622;84;20964;-68
2020/12/02 01:05:12;;;;;;;1.10;1.10;;;;;;;-1.65;86.23;101035.91;1845648;76;26443;-68
2020/12/02 01:07:42;;;;;;;1.13;1.03;;;;;;;-1.70;86.25;101045.86;1815717;79;20913;-68
2020/12/02 01:10:11;;;;;;;2.23;1.60;;;;;;;-1.70;86.29;101043.68;1815651;79;21354;-67
2020/12/02 01:12:43;;;;;;;1.20;1.00;;;;;;;-1.71;86.35;101034.88;1815523;79;20952;-69
2020/12/02 01:15:12;;;;;;;1.15;1.05;;;;;;;-1.69;86.40;101037.45;1784345;79;21553;-68
2020/12/02 01:17:40;;;;;;;1.33;1.30;;;;;;;-1.69;86.44;101043.61;1784582;79;20999;-68
2020/12/02 01:20:10;;;;;;;3.47;1.73;;;;;;;-1.67;86.49;101043.55;1784687;79;20972;-67
2020/12/02 01:22:40;;;;;;;2.13;1.67;;;;;;;-1.68;86.53;101033.41;1815500;79;21189;-66
2020/12/02 01:25:17;;;;;;;0.90;0.90;;;;;;;-1.68;86.56;101034.74;1767772;81;20969;-67
2020/12/02 01:27:59;;;;;;;2.57;2.00;;;;;;;-1.69;86.61;101030.83;1754245;81;21040;-67
2020/12/02 01:30:27;;;;;;;1.03;0.93;;;;;;;-1.69;86.66;101026.38;1702781;84;21210;-68
2020/12/02 01:32:54;;;;;;;2.57;1.40;;;;;;;-1.69;86.69;101037.45;1723755;83;21040;-68
2020/12/02 01:35:24;;;;;;;2.53;1.63;;;;;;;-1.69;86.74;101026.38;1723302;83;21372;-68
2020/12/02 01:38:00;;;;;;;2.10;1.83;;;;;;;-1.67;86.78;101033.80;1722027;83;21076;-67
2020/12/02 01:40:31;;;;;;;1.47;1.37;;;;;;;-1.68;86.81;101020.59;1722180;83;20977;-68
2020/12/02 01:43:07;;;;;;;0.93;0.87;;;;;;;-1.68;86.83;101024.13;1722211;83;21077;-68
2020/12/02 01:45:48;;;;;;;1.47;1.23;;;;;;;-1.66;86.88;101025.39;1722435;83;21255;-68
2020/12/02 01:48:51;;;;;;;0.90;0.90;;;;;;;-1.61;86.91;101014.97;1890305;76;26899;-68
2020/12/02 01:51:50;;;;;;;1.47;1.37;;;;;;;-1.65;86.95;101021.80;1860997;77;20994;-68
2020/12/02 01:54:33;;;;;;;1.47;1.37;;;;;;;-1.65;86.97;101017.81;1856524;77;21206;-67
2020/12/02 01:57:12;;;;;;;1.02;1.02;;;;;;;-1.66;87.00;101027.58;1861114;77;20937;-67
2020/12/02 01:59:55;;;;;;;3.10;2.37;;;;;;;-1.68;87.03;101023.25;1859133;77;21004;-68
2020/12/02 02:02:37;;;;;;;;;;;;;;;-1.70;87.04;101023.31;1863882;77;20973;-67
2020/12/02 02:05:19;;;;;;;2.13;1.50;;;;;;;-1.70;87.09;101021.14;1835144;78;20357;-68
2020/12/02 02:07:46;;;;;;;2.43;1.33;;;;;;;-1.70;87.12;101024.64;1753819;81;21275;-67
2020/12/02 02:10:26;;;;;;;0.90;0.90;;;;;;;-1.70;87.16;101025.11;1835244;78;21070;-68
2020/12/02 02:13:28;;;;;;;1.40;1.27;;;;;;;-1.70;87.18;101027.30;1781895;80;21021;-67
2020/12/02 02:16:03;;;;;;;0.97;0.80;;;;;;;-1.72;87.21;101022.09;1835399;78;20950;-67
2020/12/02 02:18:37;;;;;;;1.23;1.23;;;;;;;-1.67;87.23;101021.01;1845560;76;25190;-68
2020/12/02 02:21:13;;;;;;;1.93;1.83;;;;;;;-1.70;87.23;101021.14;1815631;79;20920;-66
2020/12/02 02:23:43;;;;;;;2.77;1.07;;;;;;;-1.70;87.25;101027.77;1767534;81;21460;-68
2020/12/02 02:26:27;;;;;;;1.73;1.30;;;;;;;-1.74;87.24;101025.24;1754068;81;21044;-68
2020/12/02 02:29:13;;;;;;;2.17;1.20;;;;;;;-1.76;87.22;101024.45;1759749;81;21057;-68
2020/12/02 02:31:59;;;;;;;1.53;1.43;;;;;;;-1.74;87.22;101036.33;1759820;81;21631;-67
2020/12/02 02:34:35;;;;;;;2.33;1.80;;;;;;;-1.70;87.25;101020.66;1889947;76;26881;-68
2020/12/02 02:37:06;;;;;;;1.30;1.30;;;;;;;-1.75;87.25;101030.17;1860910;77;20987;-68
2020/12/02 02:39:33;;;;;;;1.77;1.33;;;;;;;-1.76;87.23;101027.11;1860719;77;21132;-67
2020/12/02 02:42:06;;;;;;;1.67;1.57;;;;;;;-1.75;87.25;101038.59;1860805;77;20970;-68
2020/12/02 02:44:34;;;;;;;1.37;1.27;;;;;;;-1.75;87.27;101030.64;1860805;77;20966;-68
2020/12/02 02:47:03;;;;;;;2.20;1.83;;;;;;;-1.77;87.26;101037.33;1860778;76;20963;-68
2020/12/02 02:49:31;;;;;;;2.63;1.77;;;;;;;-1.78;87.27;101044.88;1860887;77;20895;-68
2020/12/02 02:52:00;;;;;;;1.37;1.27;;;;;;;-1.77;87.27;101042.64;1860444;77;21260;-67
2020/12/02 02:54:28;;;;;;;2.63;1.83;;;;;;;-1.78;87.29;101046.20;1860673;77;21898;-67
2020/12/02 02:56:56;;;;;;;2.60;1.50;;;;;;;-1.79;87.25;101041.84;1860692;76;21024;-68
2020/12/02 02:59:25;;;;;;;1.53;1.20;;;;;;;-1.81;87.26;101041.03;1860689;77;20989;-68
2020/12/02 03:01:52;;;;;;;1.13;0.90;;;;;;;-1.80;87.26;101042.77;1860858;76;21013;-69
2020/12/02 03:04:20;;;;;;;1.63;1.53;;;;;;;-1.77;87.27;101051.03;1860748;77;21364;-68
2020/12/02 03:06:48;;;;;;;1.53;1.43;;;;;;;-1.76;87.27;101043.48;1860728;77;20974;-68
2020/12/02 03:09:16;;;;;;;5.07;2.50;;;;;;;-1.77;87.26;101048.38;1860846;77;21044;-68
2020/12/02 03:11:45;;;;;;;3.87;2.97;;;;;;;-1.81;87.23;101050.31;1860747;76;21001;-68
2020/12/02 03:14:15;;;;;;;1.60;1.50;;;;;;;-1.81;87.24;101055.61;1839804;77;21025;-68
2020/12/02 03:16:48;;;;;;;1.80;1.43;;;;;;;-1.81;87.24;101056.09;1860835;77;21183;-68
2020/12/02 03:19:24;;;;;;;5.03;2.33;;;;;;;-1.81;87.23;101062.71;1811473;79;21037;-68
2020/12/02 03:21:54;;;;;;;2.50;2.30;;;;;;;-1.80;87.24;101056.50;1811397;79;20946;-68
2020/12/02 03:24:22;;;;;;;3.03;2.17;;;;;;;-1.80;87.27;101052.52;1811560;79;21036;-68
2020/12/02 03:26:51;;;;;;;2.23;2.07;;;;;;;-1.82;87.25;101053.91;1785400;79;20946;-68
2020/12/02 03:29:19;;;;;;;3.67;2.47;;;;;;;-1.82;87.27;101054.38;1811580;79;21138;-68
2020/12/02 03:31:47;;;;;;;2.13;1.93;;;;;;;-1.84;87.26;101053.56;1811555;79;21028;-68
2020/12/02 03:34:18;;;;;;;2.17;1.97;;;;;;;-1.83;87.28;101056.63;1818959;78;21450;-69
2020/12/02 03:36:46;;;;;;;5.87;2.97;;;;;;;-1.83;87.29;101059.27;1819790;78;21100;-68
2020/12/02 03:39:14;;;;;;;3.80;2.33;;;;;;;-1.83;87.25;101057.95;1819906;78;20898;-68
2020/12/02 03:41:42;;;;;;;3.20;2.57;;;;;;;-1.84;87.31;101065.05;1819859;78;21202;-68
2020/12/02 03:44:10;;;;;;;5.37;3.17;;;;;;;-1.85;87.30;101073.91;1819615;78;21044;-67
2020/12/02 03:46:38;;;;;;;5.57;2.87;;;;;;;-1.85;87.32;101070.41;1819266;78;21048;-68
2020/12/02 03:49:07;;;;;;;4.43;2.80;;;;;;;-1.87;87.33;101073.12;1819094;78;21037;-68
2020/12/02 03:51:35;;;;;;;8.27;4.60;;;;;;;-1.88;87.35;101071.86;1819440;78;21478;-67
2020/12/02 03:54:04;;;;;;;8.73;6.00;;;;;;;-1.88;87.37;101071.39;1780076;80;21376;-67
2020/12/02 03:56:33;;;;;;;8.77;4.83;;;;;;;-1.87;87.39;101073.60;1787564;80;20986;-68
2020/12/02 03:59:01;;;;;;;16.23;9.03;;;;;;;-1.89;87.39;101069.69;1792267;80;21030;-68
2020/12/02 04:01:29;;;;;;;14.03;7.50;;;;;;;-1.90;87.42;101071.92;1792204;80;21030;-68
2020/12/02 04:03:57;;;;;;;8.17;4.80;;;;;;;-1.89;87.40;101074.98;1792201;80;21062;-68
2020/12/02 04:06:25;;;;;;;6.77;4.17;;;;;;;-1.89;87.42;101074.10;1792299;80;21359;-68
2020/12/02 04:08:53;;;;;;;5.40;4.13;;;;;;;-1.92;87.43;101074.64;1792271;80;20966;-67
2020/12/02 04:11:20;;;;;;;8.20;4.57;;;;;;;-1.92;87.44;101075.97;1792178;80;21014;-67
2020/12/02 04:13:49;;;;;;;3.20;2.33;;;;;;;-1.92;87.46;101073.78;1792225;80;20998;-67
2020/12/02 04:16:17;;;;;;;5.50;3.80;;;;;;;-1.93;87.48;101071.61;1831563;77;21004;-67
2020/12/02 04:18:45;;;;;;;3.47;2.53;;;;;;;-1.95;87.45;101073.91;1860747;77;21330;-67
2020/12/02 04:21:13;;;;;;;3.70;2.80;;;;;;;-1.97;87.45;101068.67;1860627;77;21013;-68
2020/12/02 04:23:44;;;;;;;7.90;4.30;;;;;;;-1.99;87.42;101070.53;1860727;77;21558;-67
2020/12/02 04:26:12;;;;;;;3.50;2.43;;;;;;;-1.97;87.41;101073.12;1860624;77;21020;-68
2020/12/02 04:28:39;;;;;;;4.73;2.80;;;;;;;-1.99;87.41;101072.33;1860604;77;21541;-67
2020/12/02 04:31:07;;;;;;;3.20;2.30;;;;;;;-1.99;87.36;101067.87;1860777;77;21203;-67
2020/12/02 04:33:35;;;;;;;5.03;3.20;;;;;;;-2.00;87.36;101069.27;1829542;77;21012;-67
2020/12/02 04:36:04;;;;;;;4.13;2.47;;;;;;;-2.00;87.33;101072.80;1804262;79;21545;-67
2020/12/02 04:38:32;;;;;;;6.27;3.97;;;;;;;-1.96;87.36;101074.86;1804297;79;20953;-67
2020/12/02 04:41:12;;;;;;;8.93;3.40;;;;;;;-1.99;87.31;101070.53;1769018;81;20976;-68
2020/12/02 04:43:44;;;;;;;4.93;3.43;;;;;;;-2.00;87.28;101074.13;1769041;81;21206;-67
2020/12/02 04:46:23;;;;;;;5.30;3.65;;;;;;;-2.03;87.24;101082.20;1769167;81;20936;-68
2020/12/02 04:48:53;;;;;;;3.37;2.60;;;;;;;-2.05;87.19;101086.70;1765206;81;20956;-67
2020/12/02 04:51:26;;;;;;;3.27;3.00;;;;;;;-2.06;87.17;101090.27;1769017;81;20881;-68
2020/12/02 04:53:58;;;;;;;;;;;;;;;-2.07;87.14;101089.00;1771610;81;21060;-69
2020/12/02 04:56:26;;;;;;;7.20;3.13;;;;;;;-2.10;87.16;101098.81;1774657;80;21204;-68
2020/12/02 04:58:57;;;;;;;7.23;3.67;;;;;;;-2.11;87.14;101097.55;1815281;79;21051;-68
2020/12/02 05:01:31;;;;;;;4.00;3.23;;;;;;;-2.13;87.16;101098.08;1798816;79;21036;-67
2020/12/02 05:04:16;;;;;;;5.63;3.00;;;;;;;-2.12;87.19;101096.70;1815375;79;21576;-67
2020/12/02 05:07:06;;;;;;;3.00;2.60;;;;;;;-2.12;87.19;101091.87;1798987;79;20937;-67
2020/12/02 05:09:36;;;;;;;5.20;3.13;;;;;;;-2.10;87.20;101092.19;1727571;83;22202;-68
2020/12/02 05:12:22;;;;;;;8.47;4.87;;;;;;;-2.10;87.21;101089.54;1756965;81;21648;-69
2020/12/02 05:15:08;;;;;;;2.87;2.67;;;;;;;-2.03;87.25;101094.13;1889882;76;25906;-67
2020/12/02 05:17:44;;;;;;;5.10;3.37;;;;;;;-2.03;87.28;101098.10;1845407;76;24956;-68
2020/12/02 05:20:16;;;;;;;5.70;3.07;;;;;;;-2.06;87.27;101106.17;1815274;79;20870;-68
2020/12/02 05:22:46;;;;;;;3.58;3.12;;;;;;;-2.06;87.28;101110.15;1815385;77;22257;-68
2020/12/02 05:25:31;;;;;;;2.50;2.37;;;;;;;-2.07;87.28;101111.09;1815262;79;20976;-68
2020/12/02 05:28:18;;;;;;;10.20;4.93;;;;;;;-2.06;87.29;101114.59;1815215;79;20944;-68
2020/12/02 05:30:46;;;;;;;5.17;3.73;;;;;;;-2.06;87.29;101121.22;1815177;79;20992;-68
2020/12/02 05:33:18;;;;;;;5.23;3.90;;;;;;;-2.08;87.26;101120.43;1796626;78;20969;-68
2020/12/02 05:36:01;;;;;;;4.53;2.92;;;;;;;-2.10;87.26;101125.31;1783202;80;21433;-68
2020/12/02 05:38:37;;;;;;;8.90;4.33;;;;;;;-2.10;87.25;101129.30;1739322;82;21089;-67
2020/12/02 05:41:09;;;;;;;5.13;3.43;;;;;;;-2.09;87.24;101130.14;1739480;82;21483;-68
2020/12/02 05:44:00;;;;;;;6.23;4.77;;;;;;;-2.03;87.22;101134.36;1845219;76;24401;-69
2020/12/02 05:46:33;;;;;;;4.73;2.83;;;;;;;-2.08;87.17;101137.66;1815330;78;21545;-68
2020/12/02 05:49:11;;;;;;;5.22;3.15;;;;;;;-2.10;87.16;101138.57;1815501;79;22226;-68
2020/12/02 05:51:41;;;;;;;6.97;4.00;;;;;;;-2.09;87.16;101139.42;1815189;78;21004;-68
2020/12/02 05:54:15;;;;;;;6.30;3.67;;;;;;;-2.10;87.15;101147.84;1815133;77;20984;-68
2020/12/02 05:56:46;;;;;;;5.93;3.97;;;;;;;-2.09;87.15;101143.39;1815186;79;20996;-68
2020/12/02 05:59:22;;;;;;;3.47;3.07;;;;;;;-2.11;87.12;101151.44;1815239;79;21000;-68
2020/12/02 06:01:49;;;;;;;4.00;2.30;;;;;;;-2.08;87.10;101148.26;1815193;79;21319;-67
2020/12/02 06:04:17;;;;;;;3.70;3.33;;;;;;;-2.08;87.08;101150.91;1815126;79;21564;-69
2020/12/02 06:06:55;;;;;;;3.70;2.67;;;;;;;-2.06;87.11;101153.03;1783972;79;21051;-68
2020/12/02 06:09:45;;;;;;;4.50;2.90;;;;;;;-2.05;87.08;101152.97;1815313;78;21517;-66
2020/12/02 06:12:20;;;;;;;4.13;2.97;;;;;;;-2.02;87.07;101162.57;1815308;79;20929;-66
2020/12/02 06:14:49;;;;;;;4.07;2.67;;;;;;;-2.01;87.04;101163.84;1815316;79;22270;-67
2020/12/02 06:17:27;;;;;;;4.97;3.37;;;;;;;-1.95;87.08;101164.03;1815248;79;21059;-66
2020/12/02 06:19:56;;;;;;;5.57;3.93;;;;;;;-1.92;87.06;101162.59;1813292;79;20988;-66
2020/12/02 06:22:53;;;;;;;5.40;3.37;;;;;;;-1.88;87.07;101165.51;1815031;79;21003;-67
2020/12/02 06:25:53;;;;;;;5.60;3.80;;;;;;;-1.86;87.04;101166.34;1802269;79;20882;-67
2020/12/02 06:28:33;;;;;;;6.83;2.43;;;;;;;-1.89;86.93;101161.59;1801966;79;21402;-67
2020/12/02 06:31:14;;;;;;;3.83;2.77;;;;;;;-1.91;86.88;101162.53;1799176;79;21051;-66
2020/12/02 06:33:45;;;;;;;4.17;3.00;;;;;;;-1.94;86.83;101154.70;1803742;78;21015;-66
2020/12/02 06:36:29;;;;;;;5.20;2.40;;;;;;;-1.94;86.80;101161.80;1815134;79;20988;-66
2020/12/02 06:39:24;;;;;;;4.63;3.00;;;;;;;-1.95;86.79;101164.92;1815310;79;20980;-67
2020/12/02 06:41:52;;;;;;;3.87;2.87;;;;;;;-1.94;86.79;101175.05;1816842;78;22068;-67
2020/12/02 06:44:59;;;;;;;6.60;4.37;;;;;;;-1.95;86.77;101170.66;1835623;78;21058;-64
2020/12/02 06:47:28;;;;;;;6.40;4.67;;;;;;;-1.94;86.79;101167.10;1743893;81;21187;-72
2020/12/02 06:50:02;;;;;;;3.87;2.53;;;;;;;-1.91;86.83;101169.16;1738380;81;20990;-70
2020/12/02 06:52:35;;;;;;;4.10;2.63;;;;;;;-1.89;86.84;101167.78;1738233;81;21516;-73
2020/12/02 06:55:13;;;;;;;3.50;2.80;;;;;;;-1.85;86.85;101179.97;1736239;81;21398;-72
2020/12/02 06:57:41;;;;;;;5.77;3.13;;;;;;;-1.80;86.87;101178.47;1769989;81;21057;-67
2020/12/02 07:00:17;;;;;;;5.27;3.53;;;;;;;-1.77;86.89;101178.31;1759359;81;21078;-67
2020/12/02 07:02:55;;;;;;;4.50;3.13;;;;;;;-1.76;86.84;101178.73;1736734;82;21008;-66
2020/12/02 07:05:39;;;;;;;5.53;3.30;;;;;;;-1.73;86.85;101186.56;1736673;82;21027;-66
2020/12/02 07:08:15;;;;;;;2.33;2.13;;;;;;;-1.72;86.79;101186.94;1676984;85;21426;-66
2020/12/02 07:11:03;;;;;;;6.03;3.53;;;;;;;-1.71;86.76;101187.36;1669916;86;21045;-67
2020/12/02 07:13:36;;;;;;;2.73;2.53;;;;;;;-1.69;86.75;101188.15;1695908;84;21129;-66
2020/12/02 07:16:20;;;;;;;3.55;2.17;;;;;;;-1.67;86.70;101184.11;1672651;84;21193;-67
2020/12/02 07:19:02;;;;;;;5.70;3.13;;;;;;;-1.64;86.67;101180.86;1824032;76;26198;-68
2020/12/02 07:21:39;;;;;;;7.23;3.60;;;;;;;-1.66;86.62;101180.07;1798776;79;21008;-67
2020/12/02 07:24:17;;;;;;;6.20;3.23;;;;;;;-1.66;86.57;101177.89;1812694;79;21371;-68
2020/12/02 07:26:45;;;;;;;2.27;2.10;;;;;;;-1.66;86.53;101176.09;1790172;79;21003;-66
2020/12/02 07:29:16;;;;;;;4.73;2.87;;;;;;;-1.64;86.50;101180.86;1735300;82;21017;-66
2020/12/02 07:31:44;;;;;;;4.63;3.30;;;;;;;-1.61;86.48;101183.39;1768034;81;21012;-66
2020/12/02 07:34:19;;;;;;;3.33;2.40;;;;;;;-1.56;86.48;101180.52;1767443;80;20952;-66
2020/12/02 07:36:47;;;;;;;7.03;3.20;;;;;;;-1.55;86.44;101183.12;1742701;81;21216;-66
2020/12/02 07:39:19;;;;;;;6.37;4.30;;;;;;;-1.50;86.41;101190.04;1758392;81;21577;-68
2020/12/02 07:42:16;;;;;;;2.77;2.13;;;;;;;-1.49;86.36;101192.59;1750763;81;20985;-69
2020/12/02 07:45:15;;;;;;;4.47;3.20;;;;;;;-1.47;86.32;101199.17;1667528;85;21164;-68
2020/12/02 07:48:01;;;;;;;3.30;3.00;;;;;;;-1.49;86.23;101199.23;1668204;84;20981;-67
2020/12/02 07:50:47;;;;;;;6.53;4.03;;;;;;;-1.45;86.12;101201.29;1889720;76;26914;-68
2020/12/02 07:53:54;;;;;;;7.03;2.90;;;;;;;-1.49;86.06;101201.88;1860574;77;21132;-69
2020/12/02 07:56:30;;;;;;;3.63;3.33;;;;;;;-1.47;86.05;101200.49;1860292;77;21370;-67
2020/12/02 07:59:15;;;;;;;4.83;3.50;;;;;;;-1.48;85.99;101208.08;1802176;79;21012;-68
2020/12/02 08:02:00;;;;;;;4.50;3.20;;;;;;;-1.50;85.96;101205.95;1800786;79;20970;-68
2020/12/02 08:04:37;;;;;;;4.10;2.53;;;;;;;-1.48;85.93;101210.73;1799963;79;21605;-66
2020/12/02 08:07:09;;;;;;;3.77;2.40;;;;;;;-1.48;85.92;101204.09;1807212;79;21024;-67
2020/12/02 08:09:44;;;;;;;6.35;3.65;;;;;;;-1.43;85.95;101209.59;1813362;79;21249;-67
2020/12/02 08:12:18;;;;;;;;;;;;;;;-1.39;85.97;101206.34;1784150;78;21082;-67
2020/12/02 08:15:09;;;;;;;3.97;3.07;;;;;;;-1.36;85.89;101192.95;1837727;76;26953;-67
2020/12/02 08:17:39;;;;;;;4.33;3.00;;;;;;;-1.40;85.85;101192.67;1746353;81;20994;-73
2020/12/02 08:20:31;;;;;;;4.20;2.93;;;;;;;-1.42;85.75;101195.86;1738044;81;21386;-72
2020/12/02 08:23:25;;;;;;;5.43;3.40;;;;;;;-1.44;85.68;101188.44;1701892;84;21100;-72
2020/12/02 08:26:18;;;;;;;6.27;3.60;;;;;;;-1.45;85.63;101187.58;1697383;84;20981;-73
2020/12/02 08:28:46;;;;;;;3.85;3.27;;;;;;;-1.46;85.58;101189.82;1700474;84;24149;-72
2020/12/02 08:31:25;;;;;;;2.40;2.20;;;;;;;-1.46;85.54;101188.97;1698762;84;21060;-68
2020/12/02 08:34:16;;;;;;;4.67;3.43;;;;;;;-1.46;85.54;101179.69;1693714;84;21090;-73
2020/12/02 08:36:48;;;;;;;4.13;3.47;;;;;;;-1.42;85.54;101177.28;1701436;84;21159;-73
2020/12/02 08:39:30;;;;;;;7.57;4.10;;;;;;;-1.36;85.54;101175.71;1834552;76;26970;-72
2020/12/02 08:41:58;;;;;;;4.60;2.85;;;;;;;-1.39;85.46;101175.36;1807212;79;20986;-68
2020/12/02 08:44:26;;;;;;;6.47;3.20;;;;;;;-1.37;85.40;101172.64;1807779;79;21303;-70
2020/12/02 08:47:10;;;;;;;4.67;3.60;;;;;;;-1.35;85.42;101178.30;1800135;79;20990;-72
2020/12/02 08:49:39;;;;;;;8.00;4.00;;;;;;;-1.27;85.42;101171.80;1736541;82;20997;-72
2020/12/02 08:52:08;;;;;;;5.57;3.30;;;;;;;-1.23;85.38;101176.03;1763335;81;20978;-70
2020/12/02 08:54:36;;;;;;;2.97;2.67;;;;;;;-1.24;85.29;101172.52;1757913;81;20981;-68
2020/12/02 08:57:07;;;;;;;3.93;2.63;;;;;;;-1.25;85.23;101172.11;1761466;81;21392;-68
2020/12/02 08:59:35;;;;;;;4.00;2.03;;;;;;;-1.23;85.17;101166.27;1698197;84;20970;-69
2020/12/02 09:02:06;;;;;;;4.03;2.50;;;;;;;-1.22;85.14;101168.00;1713641;83;21320;-68
2020/12/02 09:04:34;;;;;;;5.97;2.77;;;;;;;-1.20;85.09;101169.27;1717375;83;21034;-68
2020/12/02 09:07:04;;;;;;;3.20;2.40;;;;;;;-1.17;85.07;101167.33;1726689;82;21041;-68
2020/12/02 09:09:36;;;;;;;7.67;3.10;;;;;;;-1.17;84.99;101170.43;1716253;82;21325;-70
2020/12/02 09:12:07;;;;;;;5.33;2.80;;;;;;;-1.16;84.93;101165.53;1701749;83;21610;-67
2020/12/02 09:14:36;;;;;;;5.53;2.97;;;;;;;-1.15;84.89;101161.96;1690393;83;21078;-70
2020/12/02 09:17:03;;;;;;;4.17;2.83;;;;;;;-1.13;84.87;101154.79;1700248;83;20974;-73
2020/12/02 09:19:31;;;;;;;4.63;2.37;;;;;;;-1.09;84.88;101162.14;1700129;83;21050;-68
2020/12/02 09:21:59;;;;;;;6.53;4.10;;;;;;;-1.08;84.90;101159.43;1713999;83;22265;-68
2020/12/02 09:24:27;;;;;;;8.17;3.23;;;;;;;-1.03;84.88;101163.18;1705648;83;21180;-68
2020/12/02 09:26:55;;;;;;;5.30;3.60;;;;;;;-1.00;84.89;101163.05;1692171;83;21559;-67
2020/12/02 09:29:23;;;;;;;5.33;3.13;;;;;;;-0.98;84.85;101164.69;1706518;83;21066;-68
2020/12/02 09:31:51;;;;;;;6.43;3.57;;;;;;;-0.96;84.82;101160.64;1706605;83;21254;-69
2020/12/02 09:34:19;;;;;;;7.57;3.57;;;;;;;-0.95;84.77;101147.78;1693417;83;21204;-72
2020/12/02 09:36:46;;;;;;;4.47;3.13;;;;;;;-0.93;84.72;101149.89;1667718;84;21019;-72
2020/12/02 09:39:15;;;;;;;7.63;3.37;;;;;;;-0.90;84.73;101140.91;1691746;84;21094;-75
2020/12/02 09:42:23;;;;;;;7.27;4.40;;;;;;;-0.90;84.68;101141.80;1673223;85;21060;-72
2020/12/02 09:45:06;;;;;;;4.33;3.00;;;;;;;-0.89;84.61;101145.30;1670516;84;21164;-71
2020/12/02 09:47:33;;;;;;;3.83;2.77;;;;;;;-0.93;84.43;101143.73;1690569;82;21225;-71
2020/12/02 09:50:01;;;;;;;5.13;3.97;;;;;;;-0.95;84.39;101145.13;1719793;83;21057;-70
2020/12/02 09:52:43;;;;;;;3.90;3.00;;;;;;;-0.93;84.37;101147.71;1692907;84;21027;-74
2020/12/02 09:55:22;;;;;;;3.07;2.77;;;;;;;-0.90;84.42;101147.11;1720030;83;20977;-70
2020/12/02 09:57:52;;;;;;;7.27;3.50;;;;;;;-0.86;84.44;101146.02;1684557;84;20992;-71
2020/12/02 10:00:22;;;;;;;4.50;2.43;;;;;;;-0.86;84.37;101143.36;1705271;83;21400;-73
2020/12/02 10:03:24;;;;;;;6.20;3.50;;;;;;;-0.84;84.31;101139.31;1707150;83;20976;-70
2020/12/02 10:06:25;;;;;;;6.03;3.90;;;;;;;-0.83;84.30;101135.73;1715740;83;21071;-70
2020/12/02 10:09:20;;;;;;;6.23;3.83;;;;;;;-0.84;84.15;101143.30;1749457;82;21028;-71
2020/12/02 10:12:09;;;;;;;6.13;3.57;;;;;;;-0.84;84.07;101135.33;1834854;76;25501;-70
2020/12/02 10:14:57;;;;;;;7.10;4.25;;;;;;;-0.89;84.04;101139.98;1808050;79;20972;-72
2020/12/02 10:17:49;;;;;;;5.77;3.77;;;;;;;-0.90;84.08;101140.47;1809976;78;21365;-73
2020/12/02 10:20:44;;;;;;;3.77;3.10;;;;;;;-0.90;84.07;101138.25;1793556;79;21080;-73
2020/12/02 10:23:50;;;;;;;3.13;2.77;;;;;;;-0.91;84.07;101147.17;1761436;81;20997;-72
2020/12/02 10:26:58;;;;;;;5.40;3.77;;;;;;;-0.90;84.02;101140.47;1888761;74;25087;-71
2020/12/02 10:30:04;;;;;;;5.83;2.20;;;;;;;-0.94;84.00;101139.34;1823153;78;21584;-68
2020/12/02 10:32:58;;;;;;;3.27;2.43;;;;;;;-0.94;84.01;101138.01;1865962;76;21375;-68
2020/12/02 10:35:28;;;;;;;3.50;2.57;;;;;;;-0.93;84.03;101137.95;1852517;76;21081;-67
2020/12/02 10:37:59;;;;;;;5.50;3.77;;;;;;;-0.89;84.11;101142.64;1852039;76;21573;-66
2020/12/02 10:40:32;;;;;;;5.70;3.57;;;;;;;-0.87;84.16;101136.80;1795289;79;21030;-66
2020/12/02 10:43:39;;;;;;;6.22;2.58;;;;;;;-0.83;84.18;101150.34;1793879;79;21077;-68
2020/12/02 10:46:12;;;;;;;4.83;3.37;;;;;;;-0.82;84.16;101146.74;1761202;80;22843;-67
2020/12/02 10:48:57;;;;;;;4.22;3.83;;;;;;;-0.80;84.14;101144.88;1756011;81;21574;-68
2020/12/02 10:54:13;;;;;;;3.73;1.93;;;;;;;-0.78;84.11;101140.34;1724620;82;20981;-74
2020/12/02 10:56:58;;;;;;;8.03;3.70;;;;;;;-0.72;84.09;101141.87;1844342;76;25874;-72
2020/12/02 10:59:27;;;;;;;6.63;4.03;;;;;;;-0.75;84.09;101146.84;1746552;79;21067;-73
2020/12/02 11:01:54;;;;;;;6.90;3.83;;;;;;;-0.76;84.04;101146.47;1756865;81;21192;-70
2020/12/02 11:04:22;;;;;;;5.20;2.90;;;;;;;-0.75;83.99;101143.34;1755971;81;21044;-71
2020/12/02 11:07:27;;;;;;;7.67;4.17;;;;;;;-0.79;83.93;101134.18;1756576;81;21096;-74
2020/12/02 11:10:00;;;;;;;;;;;;;;;-0.77;83.93;101132.78;1758199;81;21711;-73
2020/12/02 11:12:48;;;;;;;3.40;2.35;;;;;;;-0.77;83.86;101128.33;1756372;81;20184;-70
2020/12/02 11:15:44;;;;;;;4.03;2.50;;;;;;;-0.80;83.78;101133.80;1736529;80;20952;-71
2020/12/02 11:18:34;;;;;;;5.35;3.17;;;;;;;-0.81;83.73;101131.22;1727864;83;21235;-71
2020/12/02 11:21:26;;;;;;;2.87;2.63;;;;;;;-0.84;83.70;101138.84;1728067;83;20988;-71
2020/12/02 11:24:22;;;;;;;4.90;3.67;;;;;;;-0.84;83.72;101135.33;1728301;81;21103;-77
2020/12/02 11:26:51;;;;;;;7.33;3.50;;;;;;;-0.83;83.76;101134.41;1744683;81;21087;-73
2020/12/02 11:29:20;;;;;;;6.10;3.90;;;;;;;-0.84;83.74;101132.20;1741307;80;21200;-73
2020/12/02 11:31:57;;;;;;;3.30;2.53;;;;;;;-0.81;83.82;101133.87;1755988;81;21063;-72
2020/12/02 11:34:51;;;;;;;6.13;3.80;;;;;;;-0.80;83.84;101136.45;1750327;81;21023;-70
2020/12/02 11:37:37;;;;;;;5.00;3.30;;;;;;;-0.75;83.84;101133.56;1843087;76;25463;-71
2020/12/02 11:40:18;;;;;;;4.27;2.73;;;;;;;-0.80;83.84;101128.94;1710363;82;21028;-73
2020/12/02 11:43:25;;;;;;;16.53;6.80;;;;;;;-0.77;83.86;101126.14;1829490;76;27713;-72
2020/12/02 11:45:53;;;;;;;13.97;5.37;;;;;;;-0.79;83.85;101120.05;1809112;79;20940;-73
2020/12/02 11:48:37;;;;;;;5.50;3.87;;;;;;;-0.80;83.75;101121.85;1807391;77;21371;-70
2020/12/02 11:51:32;;;;;;;8.10;3.73;;;;;;;-0.84;83.69;101114.09;1758852;79;21043;-73
2020/12/02 11:54:04;;;;;;;4.40;3.07;;;;;;;-0.86;83.70;101102.68;1799768;77;21027;-73
2020/12/02 11:56:37;;;;;;;7.47;4.30;;;;;;;-0.90;83.72;101100.64;1761324;81;20947;-71
2020/12/02 11:59:20;;;;;;;7.77;3.97;;;;;;;-0.92;83.75;101093.21;1889875;76;25280;-76
2020/12/02 12:01:57;;;;;;;9.83;4.57;;;;;;;-1.00;83.77;101086.06;1857251;76;21429;-72
2020/12/02 12:05:04;;;;;;;10.83;4.17;;;;;;;-1.03;83.85;101096.34;1836065;77;21193;-67
2020/12/02 12:07:51;;;;;;;8.87;4.23;;;;;;;-1.03;83.96;101106.10;1660956;86;21046;-67
2020/12/02 12:10:28;;;;;;;8.80;3.83;;;;;;;-1.05;84.02;101110.63;1720867;83;21029;-72
2020/12/02 12:13:08;;;;;;;6.17;3.37;;;;;;;-1.09;84.04;101108.58;1746913;82;21005;-73